sensor_id;sensor_type;location;lat;lon;timestamp;temperature;humidity
13808;DHT22;40769;51.512;5.494;2022-11-20T00:00:53;4.40;99.90
13808;DHT22;40769;51.512;5.494;2022-11-20T00:03:19;4.30;99.90
13808;DHT22;40769;51.512;5.494;2022-11-20T00:05:45;4.20;99.90
13808;DHT22;40769;51.512;5.494;2022-11-20T00:08:11;4.20;99.90
13808;DHT22;40769;51.512;5.494;2022-11-20T00:10:38;4.10;99.90
13808;DHT22;40769;51.512;5.494;2022-11-20T00:13:04;4.30;99.90
13808;DHT22;40769;51.512;5.494;2022-11-20T00:15:30;4.10;99.90
13808;DHT22;40769;51.512;5.494;2022-11-20T00:17:55;4.10;99.90
13808;DHT22;40769;51.512;5.494;2022-11-20T00:20:21;4.10;99.90
13808;DHT22;40769;51.512;5.494;2022-11-20T00:22:47;4.10;99.90
13808;DHT22;40769;51.512;5.494;2022-11-20T00:25:13;4.00;99.90
13808;DHT22;40769;51.512;5.494;2022-11-20T00:27:38;4.00;99.90
13808;DHT22;40769;51.512;5.494;2022-11-20T00:30:05;3.90;99.90
13808;DHT22;40769;51.512;5.494;2022-11-20T00:32:31;4.00;99.90
13808;DHT22;40769;51.512;5.494;2022-11-20T00:34:57;4.00;99.90
13808;DHT22;40769;51.512;5.494;2022-11-20T00:37:22;3.90;99.90
13808;DHT22;40769;51.512;5.494;2022-11-20T00:39:48;3.90;99.90
13808;DHT22;40769;51.512;5.494;2022-11-20T00:42:13;3.90;99.90
13808;DHT22;40769;51.512;5.494;2022-11-20T00:44:39;3.90;99.90
13808;DHT22;40769;51.512;5.494;2022-11-20T00:47:04;3.90;99.90
13808;DHT22;40769;51.512;5.494;2022-11-20T00:49:30;4.50;99.90
13808;DHT22;40769;51.512;5.494;2022-11-20T00:51:56;3.80;99.90
13808;DHT22;40769;51.512;5.494;2022-11-20T00:54:21;3.80;99.90
13808;DHT22;40769;51.512;5.494;2022-11-20T00:56:47;3.80;99.90
13808;DHT22;40769;51.512;5.494;2022-11-20T00:59:12;3.80;99.90
13808;DHT22;40769;51.512;5.494;2022-11-20T01:01:38;3.80;99.90
13808;DHT22;40769;51.512;5.494;2022-11-20T01:04:04;3.70;99.90
13808;DHT22;40769;51.512;5.494;2022-11-20T01:06:32;3.70;99.90
13808;DHT22;40769;51.512;5.494;2022-11-20T01:09:01;3.70;99.90
13808;DHT22;40769;51.512;5.494;2022-11-20T01:11:29;3.70;99.90
13808;DHT22;40769;51.512;5.494;2022-11-20T01:13:56;3.70;99.90
13808;DHT22;40769;51.512;5.494;2022-11-20T01:16:27;4.40;99.90
13808;DHT22;40769;51.512;5.494;2022-11-20T01:18:57;3.70;99.90
13808;DHT22;40769;51.512;5.494;2022-11-20T01:21:37;3.70;99.90
13808;DHT22;40769;51.512;5.494;2022-11-20T01:24:05;3.70;99.90
13808;DHT22;40769;51.512;5.494;2022-11-20T01:26:35;3.70;99.90
13808;DHT22;40769;51.512;5.494;2022-11-20T01:29:01;3.60;99.90
13808;DHT22;40769;51.512;5.494;2022-11-20T01:31:32;3.60;99.90
13808;DHT22;40769;51.512;5.494;2022-11-20T01:34:01;3.60;99.90
13808;DHT22;40769;51.512;5.494;2022-11-20T01:36:29;3.60;99.90
13808;DHT22;40769;51.512;5.494;2022-11-20T01:38:57;3.50;99.90
13808;DHT22;40769;51.512;5.494;2022-11-20T01:41:29;3.50;99.90
13808;DHT22;40769;51.512;5.494;2022-11-20T01:44:16;3.50;99.90
13808;DHT22;40769;51.512;5.494;2022-11-20T01:49:38;3.50;99.90
13808;DHT22;40769;51.512;5.494;2022-11-20T01:52:18;3.40;99.90
13808;DHT22;40769;51.512;5.494;2022-11-20T01:55:19;3.40;99.90
13808;DHT22;40769;51.512;5.494;2022-11-20T01:57:44;3.40;99.90
13808;DHT22;40769;51.512;5.494;2022-11-20T02:00:13;3.70;99.90
13808;DHT22;40769;51.512;5.494;2022-11-20T02:02:47;3.30;99.90
13808;DHT22;40769;51.512;5.494;2022-11-20T02:07:48;3.30;99.90
13808;DHT22;40769;51.512;5.494;2022-11-20T02:10:15;3.30;99.90
13808;DHT22;40769;51.512;5.494;2022-11-20T02:12:40;3.30;99.90
13808;DHT22;40769;51.512;5.494;2022-11-20T02:15:24;3.30;99.90
13808;DHT22;40769;51.512;5.494;2022-11-20T02:17:53;3.30;99.90
13808;DHT22;40769;51.512;5.494;2022-11-20T02:20:19;3.30;99.90
13808;DHT22;40769;51.512;5.494;2022-11-20T02:23:12;3.20;99.90
13808;DHT22;40769;51.512;5.494;2022-11-20T02:25:37;3.20;99.90
13808;DHT22;40769;51.512;5.494;2022-11-20T02:28:03;3.20;99.90
13808;DHT22;40769;51.512;5.494;2022-11-20T02:30:30;3.20;99.90
13808;DHT22;40769;51.512;5.494;2022-11-20T02:32:55;3.20;99.90
13808;DHT22;40769;51.512;5.494;2022-11-20T02:37:50;3.30;99.90
13808;DHT22;40769;51.512;5.494;2022-11-20T02:40:17;3.30;99.90
13808;DHT22;40769;51.512;5.494;2022-11-20T02:42:43;3.30;99.90
13808;DHT22;40769;51.512;5.494;2022-11-20T02:45:09;3.40;99.90
13808;DHT22;40769;51.512;5.494;2022-11-20T02:47:35;3.30;99.90
13808;DHT22;40769;51.512;5.494;2022-11-20T02:50:00;3.20;99.90
13808;DHT22;40769;51.512;5.494;2022-11-20T02:52:26;3.10;99.90
13808;DHT22;40769;51.512;5.494;2022-11-20T02:54:52;2.80;99.90
13808;DHT22;40769;51.512;5.494;2022-11-20T02:57:18;2.70;99.90
13808;DHT22;40769;51.512;5.494;2022-11-20T02:59:44;2.50;99.90
13808;DHT22;40769;51.512;5.494;2022-11-20T03:02:09;2.30;99.90
13808;DHT22;40769;51.512;5.494;2022-11-20T03:04:35;2.10;99.90
13808;DHT22;40769;51.512;5.494;2022-11-20T03:07:01;2.00;99.90
13808;DHT22;40769;51.512;5.494;2022-11-20T03:09:26;1.90;99.90
13808;DHT22;40769;51.512;5.494;2022-11-20T03:11:52;1.80;99.90
13808;DHT22;40769;51.512;5.494;2022-11-20T03:14:17;1.80;99.90
13808;DHT22;40769;51.512;5.494;2022-11-20T03:16:43;1.70;99.90
13808;DHT22;40769;51.512;5.494;2022-11-20T03:19:09;1.60;99.90
13808;DHT22;40769;51.512;5.494;2022-11-20T03:21:35;1.60;99.90
13808;DHT22;40769;51.512;5.494;2022-11-20T03:24:01;1.60;99.90
13808;DHT22;40769;51.512;5.494;2022-11-20T03:26:27;1.60;99.90
13808;DHT22;40769;51.512;5.494;2022-11-20T03:28:59;1.60;99.90
13808;DHT22;40769;51.512;5.494;2022-11-20T03:31:34;1.60;99.90
13808;DHT22;40769;51.512;5.494;2022-11-20T03:34:00;1.60;99.90
13808;DHT22;40769;51.512;5.494;2022-11-20T03:36:27;1.60;99.90
13808;DHT22;40769;51.512;5.494;2022-11-20T03:38:56;1.60;99.90
13808;DHT22;40769;51.512;5.494;2022-11-20T03:41:27;1.50;99.90
13808;DHT22;40769;51.512;5.494;2022-11-20T03:43:55;1.50;99.90
13808;DHT22;40769;51.512;5.494;2022-11-20T03:46:21;1.50;99.90
13808;DHT22;40769;51.512;5.494;2022-11-20T03:48:48;1.50;99.90
13808;DHT22;40769;51.512;5.494;2022-11-20T03:51:24;1.50;99.90
13808;DHT22;40769;51.512;5.494;2022-11-20T03:53:52;1.50;99.90
13808;DHT22;40769;51.512;5.494;2022-11-20T03:56:23;1.40;99.90
13808;DHT22;40769;51.512;5.494;2022-11-20T03:58:49;1.40;99.90
13808;DHT22;40769;51.512;5.494;2022-11-20T04:01:20;1.40;99.90
13808;DHT22;40769;51.512;5.494;2022-11-20T04:03:46;1.30;99.90
13808;DHT22;40769;51.512;5.494;2022-11-20T04:06:14;1.30;99.90
13808;DHT22;40769;51.512;5.494;2022-11-20T04:08:41;1.20;99.90
13808;DHT22;40769;51.512;5.494;2022-11-20T04:11:10;1.20;99.90
13808;DHT22;40769;51.512;5.494;2022-11-20T04:13:36;1.20;99.90
13808;DHT22;40769;51.512;5.494;2022-11-20T04:16:02;1.20;99.90
13808;DHT22;40769;51.512;5.494;2022-11-20T04:18:30;1.20;99.90
13808;DHT22;40769;51.512;5.494;2022-11-20T04:20:57;1.20;99.90
13808;DHT22;40769;51.512;5.494;2022-11-20T04:23:23;1.20;99.90
13808;DHT22;40769;51.512;5.494;2022-11-20T04:25:48;1.20;99.90
13808;DHT22;40769;51.512;5.494;2022-11-20T04:28:14;1.10;99.90
13808;DHT22;40769;51.512;5.494;2022-11-20T04:30:40;1.10;99.90
13808;DHT22;40769;51.512;5.494;2022-11-20T04:33:05;1.10;99.90
13808;DHT22;40769;51.512;5.494;2022-11-20T04:35:34;1.20;99.90
13808;DHT22;40769;51.512;5.494;2022-11-20T04:38:00;1.30;99.90
13808;DHT22;40769;51.512;5.494;2022-11-20T04:40:25;1.40;99.90
13808;DHT22;40769;51.512;5.494;2022-11-20T04:42:51;1.50;99.90
13808;DHT22;40769;51.512;5.494;2022-11-20T04:45:16;1.60;99.90
13808;DHT22;40769;51.512;5.494;2022-11-20T04:47:42;1.70;99.90
13808;DHT22;40769;51.512;5.494;2022-11-20T04:50:08;1.60;99.90
13808;DHT22;40769;51.512;5.494;2022-11-20T04:52:34;1.70;99.90
13808;DHT22;40769;51.512;5.494;2022-11-20T04:54:59;1.80;99.90
13808;DHT22;40769;51.512;5.494;2022-11-20T04:57:25;1.80;99.90
13808;DHT22;40769;51.512;5.494;2022-11-20T04:59:50;1.80;99.90
13808;DHT22;40769;51.512;5.494;2022-11-20T05:02:16;1.90;99.90
13808;DHT22;40769;51.512;5.494;2022-11-20T05:04:41;2.10;99.90
13808;DHT22;40769;51.512;5.494;2022-11-20T05:07:07;2.20;99.90
13808;DHT22;40769;51.512;5.494;2022-11-20T05:09:33;2.10;99.90
13808;DHT22;40769;51.512;5.494;2022-11-20T05:11:58;2.10;99.90
13808;DHT22;40769;51.512;5.494;2022-11-20T05:14:24;2.00;99.90
13808;DHT22;40769;51.512;5.494;2022-11-20T05:16:49;1.90;99.90
13808;DHT22;40769;51.512;5.494;2022-11-20T05:19:15;1.80;99.90
13808;DHT22;40769;51.512;5.494;2022-11-20T05:21:41;1.70;99.90
13808;DHT22;40769;51.512;5.494;2022-11-20T05:24:06;1.60;99.90
13808;DHT22;40769;51.512;5.494;2022-11-20T05:26:32;1.50;99.90
13808;DHT22;40769;51.512;5.494;2022-11-20T05:28:58;1.50;99.90
13808;DHT22;40769;51.512;5.494;2022-11-20T05:31:24;1.40;99.90
13808;DHT22;40769;51.512;5.494;2022-11-20T05:33:50;1.40;99.90
13808;DHT22;40769;51.512;5.494;2022-11-20T05:36:16;1.40;99.90
13808;DHT22;40769;51.512;5.494;2022-11-20T05:38:43;1.30;99.90
13808;DHT22;40769;51.512;5.494;2022-11-20T05:41:13;1.30;99.90
13808;DHT22;40769;51.512;5.494;2022-11-20T05:43:40;1.30;99.90
13808;DHT22;40769;51.512;5.494;2022-11-20T05:46:10;1.30;99.90
13808;DHT22;40769;51.512;5.494;2022-11-20T05:48:37;1.30;99.90
13808;DHT22;40769;51.512;5.494;2022-11-20T05:51:04;1.30;99.90
13808;DHT22;40769;51.512;5.494;2022-11-20T05:53:30;1.30;99.90
13808;DHT22;40769;51.512;5.494;2022-11-20T05:56:04;1.30;99.90
13808;DHT22;40769;51.512;5.494;2022-11-20T05:58:31;1.30;99.90
13808;DHT22;40769;51.512;5.494;2022-11-20T06:01:26;1.40;99.90
13808;DHT22;40769;51.512;5.494;2022-11-20T06:03:53;1.40;99.90
13808;DHT22;40769;51.512;5.494;2022-11-20T06:06:20;1.50;99.90
13808;DHT22;40769;51.512;5.494;2022-11-20T06:08:46;1.60;99.90
13808;DHT22;40769;51.512;5.494;2022-11-20T06:11:13;1.80;99.90
13808;DHT22;40769;51.512;5.494;2022-11-20T06:13:39;1.90;99.90
13808;DHT22;40769;51.512;5.494;2022-11-20T06:16:05;2.00;99.90
13808;DHT22;40769;51.512;5.494;2022-11-20T06:18:31;2.20;99.90
13808;DHT22;40769;51.512;5.494;2022-11-20T06:21:07;2.30;99.90
13808;DHT22;40769;51.512;5.494;2022-11-20T06:23:35;2.40;99.90
13808;DHT22;40769;51.512;5.494;2022-11-20T06:26:11;2.50;99.90
13808;DHT22;40769;51.512;5.494;2022-11-20T06:28:38;2.60;99.90
13808;DHT22;40769;51.512;5.494;2022-11-20T06:31:05;2.80;99.90
13808;DHT22;40769;51.512;5.494;2022-11-20T06:33:31;2.90;99.90
13808;DHT22;40769;51.512;5.494;2022-11-20T06:35:58;3.00;99.90
13808;DHT22;40769;51.512;5.494;2022-11-20T06:38:24;3.20;99.90
13808;DHT22;40769;51.512;5.494;2022-11-20T06:40:50;3.30;99.90
13808;DHT22;40769;51.512;5.494;2022-11-20T06:43:16;3.50;99.90
13808;DHT22;40769;51.512;5.494;2022-11-20T06:45:41;3.60;99.90
13808;DHT22;40769;51.512;5.494;2022-11-20T06:48:08;3.70;99.90
13808;DHT22;40769;51.512;5.494;2022-11-20T06:50:37;3.70;99.90
13808;DHT22;40769;51.512;5.494;2022-11-20T06:53:04;3.70;99.90
13808;DHT22;40769;51.512;5.494;2022-11-20T06:55:31;3.60;99.90
13808;DHT22;40769;51.512;5.494;2022-11-20T06:57:57;3.50;99.90
13808;DHT22;40769;51.512;5.494;2022-11-20T07:00:23;3.50;99.90
13808;DHT22;40769;51.512;5.494;2022-11-20T07:02:49;3.40;99.90
13808;DHT22;40769;51.512;5.494;2022-11-20T07:05:15;3.40;99.90
13808;DHT22;40769;51.512;5.494;2022-11-20T07:07:41;3.20;99.90
13808;DHT22;40769;51.512;5.494;2022-11-20T07:10:07;3.20;99.90
13808;DHT22;40769;51.512;5.494;2022-11-20T07:12:32;3.10;99.90
13808;DHT22;40769;51.512;5.494;2022-11-20T07:14:58;3.10;99.90
13808;DHT22;40769;51.512;5.494;2022-11-20T07:17:23;3.00;99.90
13808;DHT22;40769;51.512;5.494;2022-11-20T07:19:49;3.00;99.90
13808;DHT22;40769;51.512;5.494;2022-11-20T07:22:15;3.00;99.90
13808;DHT22;40769;51.512;5.494;2022-11-20T07:24:40;2.90;99.90
13808;DHT22;40769;51.512;5.494;2022-11-20T07:27:06;3.00;99.90
13808;DHT22;40769;51.512;5.494;2022-11-20T07:29:31;3.00;99.90
13808;DHT22;40769;51.512;5.494;2022-11-20T07:31:57;3.30;99.90
13808;DHT22;40769;51.512;5.494;2022-11-20T07:34:23;3.00;99.90
13808;DHT22;40769;51.512;5.494;2022-11-20T07:36:48;3.10;99.90
13808;DHT22;40769;51.512;5.494;2022-11-20T07:39:14;3.10;99.90
13808;DHT22;40769;51.512;5.494;2022-11-20T07:41:42;3.10;99.90
13808;DHT22;40769;51.512;5.494;2022-11-20T07:44:08;3.30;99.90
13808;DHT22;40769;51.512;5.494;2022-11-20T07:46:33;3.10;99.90
13808;DHT22;40769;51.512;5.494;2022-11-20T07:48:59;3.20;99.90
13808;DHT22;40769;51.512;5.494;2022-11-20T07:51:24;3.10;99.90
13808;DHT22;40769;51.512;5.494;2022-11-20T07:53:52;3.20;99.90
13808;DHT22;40769;51.512;5.494;2022-11-20T07:56:17;3.20;99.90
13808;DHT22;40769;51.512;5.494;2022-11-20T07:58:43;3.20;99.90
13808;DHT22;40769;51.512;5.494;2022-11-20T08:01:09;3.20;99.90
13808;DHT22;40769;51.512;5.494;2022-11-20T08:03:35;3.30;99.90
13808;DHT22;40769;51.512;5.494;2022-11-20T08:06:03;3.30;99.90
13808;DHT22;40769;51.512;5.494;2022-11-20T08:08:28;3.30;99.90
13808;DHT22;40769;51.512;5.494;2022-11-20T08:10:56;3.40;99.90
13808;DHT22;40769;51.512;5.494;2022-11-20T08:13:41;3.40;99.90
13808;DHT22;40769;51.512;5.494;2022-11-20T08:16:26;3.40;99.90
13808;DHT22;40769;51.512;5.494;2022-11-20T08:18:51;3.50;99.90
13808;DHT22;40769;51.512;5.494;2022-11-20T08:21:17;3.50;99.90
13808;DHT22;40769;51.512;5.494;2022-11-20T08:23:42;3.60;99.90
13808;DHT22;40769;51.512;5.494;2022-11-20T08:26:08;3.60;99.90
13808;DHT22;40769;51.512;5.494;2022-11-20T08:28:36;3.70;99.90
13808;DHT22;40769;51.512;5.494;2022-11-20T08:31:05;3.70;99.90
13808;DHT22;40769;51.512;5.494;2022-11-20T08:33:30;3.80;99.90
13808;DHT22;40769;51.512;5.494;2022-11-20T08:36:05;3.80;99.90
13808;DHT22;40769;51.512;5.494;2022-11-20T08:38:31;3.90;99.90
13808;DHT22;40769;51.512;5.494;2022-11-20T08:40:58;4.00;99.90
13808;DHT22;40769;51.512;5.494;2022-11-20T08:43:43;4.00;99.90
13808;DHT22;40769;51.512;5.494;2022-11-20T08:46:08;4.10;99.90
13808;DHT22;40769;51.512;5.494;2022-11-20T08:48:34;4.20;99.90
13808;DHT22;40769;51.512;5.494;2022-11-20T08:50:59;4.50;99.90
13808;DHT22;40769;51.512;5.494;2022-11-20T08:53:26;4.40;99.90
13808;DHT22;40769;51.512;5.494;2022-11-20T08:55:51;4.50;99.90
13808;DHT22;40769;51.512;5.494;2022-11-20T08:58:17;4.70;99.90
13808;DHT22;40769;51.512;5.494;2022-11-20T09:00:43;4.80;99.90
13808;DHT22;40769;51.512;5.494;2022-11-20T09:03:08;5.00;99.90
13808;DHT22;40769;51.512;5.494;2022-11-20T09:05:34;5.10;99.90
13808;DHT22;40769;51.512;5.494;2022-11-20T09:08:00;5.30;99.90
13808;DHT22;40769;51.512;5.494;2022-11-20T09:10:28;5.40;99.90
13808;DHT22;40769;51.512;5.494;2022-11-20T09:12:54;5.50;99.90
13808;DHT22;40769;51.512;5.494;2022-11-20T09:15:24;5.70;99.90
13808;DHT22;40769;51.512;5.494;2022-11-20T09:17:53;5.80;99.90
13808;DHT22;40769;51.512;5.494;2022-11-20T09:20:20;5.90;99.90
13808;DHT22;40769;51.512;5.494;2022-11-20T09:22:45;6.00;99.90
13808;DHT22;40769;51.512;5.494;2022-11-20T09:25:11;6.00;99.90
13808;DHT22;40769;51.512;5.494;2022-11-20T09:27:36;6.20;99.90
13808;DHT22;40769;51.512;5.494;2022-11-20T09:30:02;6.30;99.90
13808;DHT22;40769;51.512;5.494;2022-11-20T09:32:28;6.40;99.90
13808;DHT22;40769;51.512;5.494;2022-11-20T09:34:56;6.50;99.90
13808;DHT22;40769;51.512;5.494;2022-11-20T09:37:22;6.60;99.90
13808;DHT22;40769;51.512;5.494;2022-11-20T09:39:48;6.70;99.90
13808;DHT22;40769;51.512;5.494;2022-11-20T09:52:57;7.10;99.90
13808;DHT22;40769;51.512;5.494;2022-11-20T09:55:25;7.10;99.90
13808;DHT22;40769;51.512;5.494;2022-11-20T09:57:52;7.00;99.90
13808;DHT22;40769;51.512;5.494;2022-11-20T10:00:18;7.00;99.90
13808;DHT22;40769;51.512;5.494;2022-11-20T10:03:12;6.90;99.90
13808;DHT22;40769;51.512;5.494;2022-11-20T10:05:44;6.90;99.90
13808;DHT22;40769;51.512;5.494;2022-11-20T10:08:18;6.80;99.90
13808;DHT22;40769;51.512;5.494;2022-11-20T10:11:12;6.80;99.90
13808;DHT22;40769;51.512;5.494;2022-11-20T10:24:30;6.70;99.90
13808;DHT22;40769;51.512;5.494;2022-11-20T10:27:21;6.70;99.90
13808;DHT22;40769;51.512;5.494;2022-11-20T10:30:01;6.70;99.90
13808;DHT22;40769;51.512;5.494;2022-11-20T10:32:33;6.70;99.90
13808;DHT22;40769;51.512;5.494;2022-11-20T10:35:14;6.80;99.90
13808;DHT22;40769;51.512;5.494;2022-11-20T10:37:44;6.80;99.90
13808;DHT22;40769;51.512;5.494;2022-11-20T10:48:12;7.00;99.90
13808;DHT22;40769;51.512;5.494;2022-11-20T10:50:47;7.10;99.90
13808;DHT22;40769;51.512;5.494;2022-11-20T10:56:56;7.20;99.90
13808;DHT22;40769;51.512;5.494;2022-11-20T11:01:46;7.30;99.90
13808;DHT22;40769;51.512;5.494;2022-11-20T11:07:10;7.40;99.90
13808;DHT22;40769;51.512;5.494;2022-11-20T11:09:43;7.50;99.90
13808;DHT22;40769;51.512;5.494;2022-11-20T11:12:09;7.50;99.90
13808;DHT22;40769;51.512;5.494;2022-11-20T11:14:43;7.50;99.90
13808;DHT22;40769;51.512;5.494;2022-11-20T11:17:22;7.60;99.90
13808;DHT22;40769;51.512;5.494;2022-11-20T11:20:14;7.60;99.90
13808;DHT22;40769;51.512;5.494;2022-11-20T11:22:50;7.70;99.90
13808;DHT22;40769;51.512;5.494;2022-11-20T11:25:21;7.80;99.90
13808;DHT22;40769;51.512;5.494;2022-11-20T11:27:48;7.80;99.90
13808;DHT22;40769;51.512;5.494;2022-11-20T11:30:16;7.90;99.90
13808;DHT22;40769;51.512;5.494;2022-11-20T11:32:42;7.90;99.90
13808;DHT22;40769;51.512;5.494;2022-11-20T11:35:27;7.90;99.90
13808;DHT22;40769;51.512;5.494;2022-11-20T11:38:02;8.00;99.90
13808;DHT22;40769;51.512;5.494;2022-11-20T11:40:28;7.90;99.90
13808;DHT22;40769;51.512;5.494;2022-11-20T11:43:04;8.00;99.90
13808;DHT22;40769;51.512;5.494;2022-11-20T11:45:30;8.00;99.90
13808;DHT22;40769;51.512;5.494;2022-11-20T11:48:00;8.00;99.90
13808;DHT22;40769;51.512;5.494;2022-11-20T11:50:29;8.00;99.90
13808;DHT22;40769;51.512;5.494;2022-11-20T11:53:16;6.80;99.90
13808;DHT22;40769;51.512;5.494;2022-11-20T11:55:56;8.00;99.90
13808;DHT22;40769;51.512;5.494;2022-11-20T12:01:31;8.00;99.90
13808;DHT22;40769;51.512;5.494;2022-11-20T12:07:15;7.90;99.90
13808;DHT22;40769;51.512;5.494;2022-11-20T12:09:49;8.00;99.90
13808;DHT22;40769;51.512;5.494;2022-11-20T12:12:38;7.60;99.90
13808;DHT22;40769;51.512;5.494;2022-11-20T12:15:11;7.90;99.90
13808;DHT22;40769;51.512;5.494;2022-11-20T12:17:38;7.90;99.90
13808;DHT22;40769;51.512;5.494;2022-11-20T12:20:11;8.00;99.90
13808;DHT22;40769;51.512;5.494;2022-11-20T12:23:00;8.00;99.90
13808;DHT22;40769;51.512;5.494;2022-11-20T12:25:30;8.00;99.90
13808;DHT22;40769;51.512;5.494;2022-11-20T12:28:10;8.00;99.90
13808;DHT22;40769;51.512;5.494;2022-11-20T12:36:19;8.00;99.90
13808;DHT22;40769;51.512;5.494;2022-11-20T12:39:07;8.00;99.90
13808;DHT22;40769;51.512;5.494;2022-11-20T12:50:51;8.10;99.90
13808;DHT22;40769;51.512;5.494;2022-11-20T12:54:01;8.10;99.90
13808;DHT22;40769;51.512;5.494;2022-11-20T13:04:55;8.40;99.90
13808;DHT22;40769;51.512;5.494;2022-11-20T13:07:30;8.50;99.90
13808;DHT22;40769;51.512;5.494;2022-11-20T13:09:59;8.70;99.90
13808;DHT22;40769;51.512;5.494;2022-11-20T13:12:36;8.70;99.90
13808;DHT22;40769;51.512;5.494;2022-11-20T13:17:59;9.00;99.90
13808;DHT22;40769;51.512;5.494;2022-11-20T13:20:26;9.10;99.90
13808;DHT22;40769;51.512;5.494;2022-11-20T13:22:53;9.10;99.90
13808;DHT22;40769;51.512;5.494;2022-11-20T13:25:37;9.10;99.90
13808;DHT22;40769;51.512;5.494;2022-11-20T13:30:35;9.30;99.90
13808;DHT22;40769;51.512;5.494;2022-11-20T13:33:30;9.30;99.90
13808;DHT22;40769;51.512;5.494;2022-11-20T13:36:04;9.30;99.90
13808;DHT22;40769;51.512;5.494;2022-11-20T13:38:45;9.40;99.90
13808;DHT22;40769;51.512;5.494;2022-11-20T13:41:22;9.50;99.90
13808;DHT22;40769;51.512;5.494;2022-11-20T13:44:14;9.50;99.90
13808;DHT22;40769;51.512;5.494;2022-11-20T13:46:43;9.50;99.90
13808;DHT22;40769;51.512;5.494;2022-11-20T13:49:21;9.50;99.90
13808;DHT22;40769;51.512;5.494;2022-11-20T13:51:50;9.60;99.90
13808;DHT22;40769;51.512;5.494;2022-11-20T13:57:17;9.50;99.90
13808;DHT22;40769;51.512;5.494;2022-11-20T14:00:11;9.60;99.90
13808;DHT22;40769;51.512;5.494;2022-11-20T14:02:37;9.60;99.90
13808;DHT22;40769;51.512;5.494;2022-11-20T14:05:04;9.60;99.90
13808;DHT22;40769;51.512;5.494;2022-11-20T14:07:41;9.60;99.90
13808;DHT22;40769;51.512;5.494;2022-11-20T14:10:43;9.60;99.90
13808;DHT22;40769;51.512;5.494;2022-11-20T14:13:18;9.60;99.90
13808;DHT22;40769;51.512;5.494;2022-11-20T14:15:44;9.70;99.90
13808;DHT22;40769;51.512;5.494;2022-11-20T14:18:20;9.70;99.90
13808;DHT22;40769;51.512;5.494;2022-11-20T14:20:47;9.70;99.90
13808;DHT22;40769;51.512;5.494;2022-11-20T14:23:23;9.70;99.90
13808;DHT22;40769;51.512;5.494;2022-11-20T14:25:50;9.70;99.90
13808;DHT22;40769;51.512;5.494;2022-11-20T14:28:29;9.70;99.90
13808;DHT22;40769;51.512;5.494;2022-11-20T14:30:56;9.70;99.90
13808;DHT22;40769;51.512;5.494;2022-11-20T14:33:23;9.60;99.90
13808;DHT22;40769;51.512;5.494;2022-11-20T14:35:59;9.60;99.90
13808;DHT22;40769;51.512;5.494;2022-11-20T14:38:27;9.60;99.90
13808;DHT22;40769;51.512;5.494;2022-11-20T14:40:53;9.50;99.90
13808;DHT22;40769;51.512;5.494;2022-11-20T14:43:27;9.50;99.90
13808;DHT22;40769;51.512;5.494;2022-11-20T14:45:58;9.40;99.90
13808;DHT22;40769;51.512;5.494;2022-11-20T14:48:33;9.40;99.90
13808;DHT22;40769;51.512;5.494;2022-11-20T14:50:59;9.30;99.90
13808;DHT22;40769;51.512;5.494;2022-11-20T14:53:25;9.30;99.90
13808;DHT22;40769;51.512;5.494;2022-11-20T14:55:59;9.20;99.90
13808;DHT22;40769;51.512;5.494;2022-11-20T14:58:33;9.20;99.90
13808;DHT22;40769;51.512;5.494;2022-11-20T15:01:01;9.10;99.90
13808;DHT22;40769;51.512;5.494;2022-11-20T15:03:36;9.00;99.90
13808;DHT22;40769;51.512;5.494;2022-11-20T15:06:03;9.00;99.90
13808;DHT22;40769;51.512;5.494;2022-11-20T15:08:30;8.90;99.90
13808;DHT22;40769;51.512;5.494;2022-11-20T15:10:55;8.90;99.90
13808;DHT22;40769;51.512;5.494;2022-11-20T15:13:25;8.80;99.90
13808;DHT22;40769;51.512;5.494;2022-11-20T15:15:56;8.80;99.90
13808;DHT22;40769;51.512;5.494;2022-11-20T15:18:26;8.70;99.90
13808;DHT22;40769;51.512;5.494;2022-11-20T15:20:55;8.70;99.90
13808;DHT22;40769;51.512;5.494;2022-11-20T15:23:21;8.70;99.90
13808;DHT22;40769;51.512;5.494;2022-11-20T15:25:48;8.60;99.90
13808;DHT22;40769;51.512;5.494;2022-11-20T15:28:29;8.60;99.90
13808;DHT22;40769;51.512;5.494;2022-11-20T15:30:55;8.60;99.90
13808;DHT22;40769;51.512;5.494;2022-11-20T15:33:22;8.60;99.90
13808;DHT22;40769;51.512;5.494;2022-11-20T15:35:47;8.60;99.90
13808;DHT22;40769;51.512;5.494;2022-11-20T15:38:13;8.60;99.90
13808;DHT22;40769;51.512;5.494;2022-11-20T15:40:39;8.60;99.90
13808;DHT22;40769;51.512;5.494;2022-11-20T15:43:04;8.60;99.90
13808;DHT22;40769;51.512;5.494;2022-11-20T15:45:46;8.60;99.90
13808;DHT22;40769;51.512;5.494;2022-11-20T15:48:26;8.70;99.90
13808;DHT22;40769;51.512;5.494;2022-11-20T15:50:58;8.60;99.90
13808;DHT22;40769;51.512;5.494;2022-11-20T15:53:24;8.60;99.90
13808;DHT22;40769;51.512;5.494;2022-11-20T15:55:50;8.60;99.90
13808;DHT22;40769;51.512;5.494;2022-11-20T15:58:16;8.60;99.90
13808;DHT22;40769;51.512;5.494;2022-11-20T16:00:44;8.70;99.90
13808;DHT22;40769;51.512;5.494;2022-11-20T16:03:15;8.60;99.90
13808;DHT22;40769;51.512;5.494;2022-11-20T16:05:43;8.70;99.90
13808;DHT22;40769;51.512;5.494;2022-11-20T16:08:09;8.70;99.90
13808;DHT22;40769;51.512;5.494;2022-11-20T16:10:35;8.70;99.90
13808;DHT22;40769;51.512;5.494;2022-11-20T16:13:01;8.90;99.90
13808;DHT22;40769;51.512;5.494;2022-11-20T16:15:51;8.70;99.90
13808;DHT22;40769;51.512;5.494;2022-11-20T16:18:19;8.70;99.90
13808;DHT22;40769;51.512;5.494;2022-11-20T16:20:50;8.70;99.90
13808;DHT22;40769;51.512;5.494;2022-11-20T16:23:16;8.80;99.90
13808;DHT22;40769;51.512;5.494;2022-11-20T16:25:43;8.90;99.90
13808;DHT22;40769;51.512;5.494;2022-11-20T16:28:09;8.90;99.90
13808;DHT22;40769;51.512;5.494;2022-11-20T16:30:35;9.00;99.90
13808;DHT22;40769;51.512;5.494;2022-11-20T16:33:01;8.90;99.90
13808;DHT22;40769;51.512;5.494;2022-11-20T16:35:28;9.00;99.90
13808;DHT22;40769;51.512;5.494;2022-11-20T16:38:00;9.00;99.90
13808;DHT22;40769;51.512;5.494;2022-11-20T16:40:26;9.10;99.90
13808;DHT22;40769;51.512;5.494;2022-11-20T16:42:52;9.10;99.90
13808;DHT22;40769;51.512;5.494;2022-11-20T16:45:17;9.10;99.90
13808;DHT22;40769;51.512;5.494;2022-11-20T16:47:43;9.40;99.90
13808;DHT22;40769;51.512;5.494;2022-11-20T16:50:09;9.30;99.90
13808;DHT22;40769;51.512;5.494;2022-11-20T16:52:35;9.30;99.90
13808;DHT22;40769;51.512;5.494;2022-11-20T16:55:00;9.50;99.90
13808;DHT22;40769;51.512;5.494;2022-11-20T16:57:30;9.40;99.90
13808;DHT22;40769;51.512;5.494;2022-11-20T16:59:58;9.40;99.90
13808;DHT22;40769;51.512;5.494;2022-11-20T17:02:24;9.50;99.90
13808;DHT22;40769;51.512;5.494;2022-11-20T17:04:50;9.50;99.90
13808;DHT22;40769;51.512;5.494;2022-11-20T17:07:16;9.50;99.90
13808;DHT22;40769;51.512;5.494;2022-11-20T17:09:42;9.50;99.90
13808;DHT22;40769;51.512;5.494;2022-11-20T17:12:08;9.50;99.90
13808;DHT22;40769;51.512;5.494;2022-11-20T17:14:34;9.60;99.90
13808;DHT22;40769;51.512;5.494;2022-11-20T17:16:59;9.60;99.90
13808;DHT22;40769;51.512;5.494;2022-11-20T17:19:25;9.70;99.90
13808;DHT22;40769;51.512;5.494;2022-11-20T17:21:50;9.60;99.90